createdAt,value
2017-10-20T00:00:59.736Z,83.73
2017-10-20T00:03:26.568Z,85.50
2017-10-20T00:05:52.669Z,88.17
2017-10-20T00:08:18.785Z,81.43
2017-10-20T00:10:44.910Z,85.10
2017-10-20T00:13:11.737Z,86.20
2017-10-20T00:15:37.829Z,87.63
2017-10-20T00:18:03.929Z,86.57
2017-10-20T00:20:30.050Z,81.80
2017-10-20T00:22:56.130Z,81.67
2017-10-20T00:25:22.241Z,82.00
2017-10-20T00:27:49.078Z,83.93
2017-10-20T00:30:15.152Z,82.23
2017-10-20T00:32:41.257Z,81.30
2017-10-20T00:35:07.354Z,81.20
2017-10-20T00:37:33.455Z,79.20
2017-10-20T00:40:00.282Z,81.93
2017-10-20T00:42:26.509Z,76.87
2017-10-20T00:44:52.599Z,76.90
2017-10-20T00:47:18.718Z,82.97
2017-10-20T00:49:45.570Z,80.10
2017-10-20T00:52:12.462Z,75.87
2017-10-20T00:54:38.573Z,73.00
2017-10-20T00:57:05.396Z,78.77
2017-10-20T00:59:31.482Z,72.70
2017-10-20T01:01:57.597Z,71.93
2017-10-20T01:04:24.438Z,76.60
2017-10-20T01:06:51.256Z,73.63
2017-10-20T01:09:17.373Z,73.97
2017-10-20T01:11:43.450Z,76.57
2017-10-20T01:14:09.521Z,74.17
2017-10-20T01:16:36.386Z,71.80
2017-10-20T01:19:02.452Z,71.97
2017-10-20T01:21:28.588Z,75.63
2017-10-20T01:23:54.689Z,72.13
2017-10-20T01:26:21.529Z,69.13
2017-10-20T01:28:48.353Z,72.90
2017-10-20T01:31:14.489Z,70.57
2017-10-20T01:33:40.605Z,70.30
2017-10-20T01:36:06.698Z,70.17
2017-10-20T01:38:33.546Z,74.37
2017-10-20T01:40:59.639Z,73.20
2017-10-20T01:43:25.741Z,65.83
2017-10-20T01:45:51.860Z,67.10
2017-10-20T01:48:17.929Z,65.47
2017-10-20T01:50:44.005Z,65.50
2017-10-20T01:53:10.136Z,61.67
2017-10-20T01:55:36.234Z,63.30
2017-10-20T01:58:03.057Z,63.80
2017-10-20T02:00:29.149Z,62.83
2017-10-20T02:02:55.253Z,61.90
2017-10-20T02:05:22.074Z,57.70
2017-10-20T02:07:48.183Z,57.90
2017-10-20T02:10:14.300Z,58.03
2017-10-20T02:12:40.381Z,56.80
2017-10-20T02:15:06.478Z,58.00
2017-10-20T02:17:32.586Z,55.77
2017-10-20T02:19:59.434Z,53.40
2017-10-20T02:22:25.586Z,56.50
2017-10-20T02:24:52.425Z,54.87
2017-10-20T02:27:18.494Z,56.10
2017-10-20T02:29:44.593Z,55.70
2017-10-20T02:32:10.681Z,56.10
2017-10-20T02:34:36.781Z,55.93
2017-10-20T02:37:03.633Z,55.40
2017-10-20T02:39:29.729Z,55.07
2017-10-20T02:41:55.831Z,51.57
2017-10-20T02:44:21.929Z,55.30
2017-10-20T02:46:48.010Z,53.10
2017-10-20T02:49:14.104Z,53.07
2017-10-20T02:51:40.195Z,54.23
2017-10-20T02:54:06.285Z,52.97
2017-10-20T02:56:33.140Z,55.37
2017-10-20T02:58:59.225Z,52.53
2017-10-20T03:01:25.325Z,52.83
2017-10-20T03:03:51.406Z,53.37
2017-10-20T03:06:17.496Z,54.53
2017-10-20T03:08:43.564Z,55.23
2017-10-20T03:11:09.693Z,54.00
2017-10-20T03:13:36.518Z,54.40
2017-10-20T03:16:02.621Z,52.93
2017-10-20T03:18:28.698Z,51.20
2017-10-20T03:20:54.790Z,51.67
2017-10-20T03:23:20.892Z,50.83
2017-10-20T03:25:47.737Z,49.87
2017-10-20T03:28:14.552Z,50.60
2017-10-20T03:30:40.685Z,51.33
2017-10-20T03:33:06.774Z,51.70
2017-10-20T03:35:33.610Z,53.80
2017-10-20T03:37:59.695Z,49.93
2017-10-20T03:40:25.778Z,53.33
2017-10-20T03:42:51.871Z,53.00
2017-10-20T03:45:17.942Z,51.17
2017-10-20T03:47:44.035Z,51.63
2017-10-20T03:50:10.105Z,51.70
2017-10-20T03:52:36.207Z,52.50
2017-10-20T03:55:02.293Z,51.43
2017-10-20T03:57:28.403Z,50.70
2017-10-20T03:59:54.505Z,47.50
2017-10-20T04:02:21.377Z,49.60
2017-10-20T04:04:47.471Z,49.60
2017-10-20T04:07:13.573Z,52.43
2017-10-20T04:09:39.651Z,49.03
2017-10-20T04:12:05.745Z,48.60
2017-10-20T04:14:31.833Z,48.47
2017-10-20T04:16:58.677Z,48.60
2017-10-20T04:19:24.892Z,47.27
2017-10-20T04:21:50.973Z,47.90
2017-10-20T04:24:17.805Z,48.40
2017-10-20T04:26:43.929Z,50.03
2017-10-20T04:29:10.029Z,48.00
2017-10-20T04:31:36.121Z,48.67
2017-10-20T04:34:02.350Z,48.10
2017-10-20T04:36:28.425Z,49.40
2017-10-20T04:38:55.276Z,50.03
2017-10-20T04:41:22.093Z,49.80
2017-10-20T04:43:48.183Z,47.70
2017-10-20T04:46:14.268Z,45.50
2017-10-20T04:48:40.358Z,48.67
2017-10-20T04:51:06.526Z,47.17
2017-10-20T04:53:32.635Z,49.20
2017-10-20T04:55:58.717Z,48.90
2017-10-20T04:58:24.820Z,48.23
2017-10-20T05:00:50.909Z,47.60
2017-10-20T05:06:10.681Z,50.80
2017-10-20T05:08:36.747Z,48.73
2017-10-20T05:11:02.849Z,47.10
2017-10-20T05:13:28.939Z,45.43
2017-10-20T05:15:55.050Z,45.63
2017-10-20T05:18:21.133Z,44.77
2017-10-20T05:20:47.977Z,43.83
2017-10-20T05:23:14.051Z,44.37
2017-10-20T05:25:40.142Z,45.53
2017-10-20T05:28:06.246Z,43.20
2017-10-20T05:30:32.354Z,40.80
2017-10-20T05:32:58.446Z,40.60
2017-10-20T05:35:24.528Z,39.90
2017-10-20T05:37:50.617Z,41.93
2017-10-20T05:40:16.705Z,42.07
2017-10-20T05:42:42.834Z,42.73
2017-10-20T05:45:09.669Z,40.80
2017-10-20T05:47:35.757Z,42.37
2017-10-20T05:50:01.866Z,40.73
2017-10-20T05:52:27.972Z,42.37
2017-10-20T05:54:54.065Z,40.37
2017-10-20T05:57:20.190Z,41.60
2017-10-20T05:59:46.286Z,39.67
2017-10-20T06:02:12.381Z,39.40
2017-10-20T06:04:38.463Z,41.07
2017-10-20T06:07:04.587Z,38.20
2017-10-20T06:09:30.678Z,38.70
2017-10-20T06:11:56.758Z,41.10
2017-10-20T06:14:22.849Z,39.43
2017-10-20T06:16:48.971Z,41.03
2017-10-20T06:19:15.103Z,38.13
2017-10-20T06:21:41.940Z,39.90
2017-10-20T06:24:08.044Z,39.33
2017-10-20T06:26:34.125Z,40.87
2017-10-20T06:29:00.958Z,41.70
2017-10-20T06:31:27.112Z,39.07
2017-10-20T06:33:53.238Z,41.30
2017-10-20T06:36:19.353Z,41.40
2017-10-20T06:38:45.447Z,40.80
2017-10-20T06:41:11.620Z,40.67
2017-10-20T06:43:37.749Z,40.43
2017-10-20T06:46:03.846Z,38.40
2017-10-20T06:48:30.718Z,39.17
2017-10-20T06:50:57.583Z,37.23
2017-10-20T06:53:23.730Z,39.10
2017-10-20T06:55:49.842Z,39.17
2017-10-20T06:58:16.686Z,38.33
2017-10-20T07:00:43.568Z,39.77
2017-10-20T07:03:09.690Z,39.07
2017-10-20T07:05:36.565Z,37.90
2017-10-20T07:08:02.721Z,38.83
2017-10-20T07:10:28.846Z,37.17
2017-10-20T07:12:54.924Z,40.20
2017-10-20T07:15:21.045Z,38.10
2017-10-20T07:17:47.164Z,37.30
2017-10-20T07:20:22.270Z,38.17
2017-10-20T07:22:48.366Z,39.30
2017-10-20T07:25:14.490Z,36.97
2017-10-20T07:27:40.622Z,36.53
2017-10-20T07:30:06.763Z,36.37
2017-10-20T07:32:32.879Z,37.67
2017-10-20T07:34:59.030Z,36.17
2017-10-20T07:37:25.126Z,35.50
2017-10-20T07:39:51.247Z,36.80
2017-10-20T07:42:17.345Z,35.40
2017-10-20T07:44:43.544Z,35.73
2017-10-20T07:47:09.662Z,36.90
2017-10-20T07:49:35.790Z,33.90
2017-10-20T07:52:01.958Z,34.97
2017-10-20T07:54:28.049Z,34.03
2017-10-20T07:56:54.180Z,32.90
2017-10-20T07:59:20.333Z,31.57
2017-10-20T08:01:46.515Z,32.10
2017-10-20T08:04:12.677Z,31.23
2017-10-20T08:06:38.800Z,31.07
2017-10-20T08:09:05.624Z,31.57
2017-10-20T08:11:31.846Z,32.10
2017-10-20T08:13:57.966Z,31.63
2017-10-20T08:16:24.178Z,29.07
2017-10-20T08:18:51.017Z,29.17
2017-10-20T08:21:17.171Z,29.27
2017-10-20T08:23:43.270Z,29.00
2017-10-20T08:26:09.554Z,28.40
2017-10-20T08:28:36.399Z,28.90
2017-10-20T08:31:02.498Z,28.00
2017-10-20T08:33:28.623Z,29.23
2017-10-20T08:35:54.825Z,29.40
2017-10-20T08:38:21.703Z,27.97
2017-10-20T08:40:47.869Z,28.97
2017-10-20T08:43:13.995Z,27.73
2017-10-20T08:45:40.097Z,29.37
2017-10-20T08:48:06.249Z,28.63
2017-10-20T08:50:32.478Z,26.50
2017-10-20T08:52:58.659Z,29.40
2017-10-20T08:55:24.756Z,29.00
2017-10-20T08:57:51.606Z,27.90
2017-10-20T09:00:17.811Z,29.50
2017-10-20T09:02:43.909Z,27.23
2017-10-20T09:05:10.042Z,27.33
2017-10-20T09:07:36.132Z,24.80
2017-10-20T09:10:02.233Z,27.63
2017-10-20T09:12:28.342Z,26.30
2017-10-20T09:14:55.185Z,27.20
2017-10-20T09:17:22.037Z,26.00
2017-10-20T09:19:48.905Z,25.30
2017-10-20T09:22:15.118Z,26.80
2017-10-20T09:24:41.234Z,25.43
2017-10-20T09:27:07.326Z,27.60
2017-10-20T09:29:33.458Z,25.37
2017-10-20T09:32:00.303Z,28.17
2017-10-20T09:34:27.142Z,27.10
2017-10-20T09:36:53.234Z,25.90
2017-10-20T09:39:19.346Z,26.90
2017-10-20T09:41:45.451Z,27.50
2017-10-20T09:44:11.568Z,25.07
2017-10-20T09:46:37.657Z,28.70
2017-10-20T09:49:04.526Z,26.60
2017-10-20T09:51:30.646Z,24.87
2017-10-20T09:53:56.816Z,24.53
2017-10-20T09:56:22.922Z,25.80
2017-10-20T09:58:49.282Z,25.63
2017-10-20T10:01:16.762Z,26.37
2017-10-20T10:03:43.677Z,26.57
2017-10-20T10:06:10.533Z,25.50
2017-10-20T10:08:36.691Z,26.37
2017-10-20T10:11:02.818Z,25.57
2017-10-20T10:13:29.713Z,24.97
2017-10-20T10:15:55.818Z,25.30
2017-10-20T10:18:22.806Z,24.77
2017-10-20T10:20:48.937Z,25.70
2017-10-20T10:23:15.061Z,25.50
2017-10-20T10:25:41.276Z,24.30
2017-10-20T10:28:07.397Z,23.57
2017-10-20T10:30:33.699Z,24.47
2017-10-20T10:32:59.765Z,24.43
2017-10-20T10:35:25.914Z,23.90
2017-10-20T10:37:52.036Z,24.87
2017-10-20T10:40:18.226Z,24.60
2017-10-20T10:42:44.323Z,26.47
2017-10-20T10:45:10.462Z,24.77
2017-10-20T10:47:36.558Z,24.43
2017-10-20T10:50:02.658Z,26.40
2017-10-20T10:52:28.798Z,24.80
2017-10-20T10:54:54.906Z,26.70
2017-10-20T10:57:21.321Z,24.13
2017-10-20T10:59:47.450Z,23.37
2017-10-20T11:02:13.726Z,24.57
2017-10-20T11:04:39.817Z,24.73
2017-10-20T11:07:19.145Z,23.87
2017-10-20T11:09:57.676Z,23.17
2017-10-20T11:12:36.169Z,24.33
2017-10-20T11:15:02.310Z,25.53
2017-10-20T11:17:28.422Z,23.10
2017-10-20T11:19:54.696Z,25.40
2017-10-20T11:22:20.782Z,24.60
2017-10-20T11:24:47.618Z,24.80
2017-10-20T11:27:13.730Z,26.50
2017-10-20T11:29:39.816Z,22.83
2017-10-20T11:32:06.682Z,24.33
2017-10-20T11:34:32.817Z,24.00
2017-10-20T11:36:58.969Z,22.30
2017-10-20T11:39:25.147Z,23.20
2017-10-20T11:41:51.263Z,23.70
2017-10-20T11:44:17.345Z,24.57
2017-10-20T11:46:44.189Z,23.10
2017-10-20T11:49:10.281Z,22.00
2017-10-20T11:51:36.386Z,23.80
2017-10-20T11:54:03.293Z,23.50
2017-10-20T11:56:29.519Z,25.80
2017-10-20T11:58:55.661Z,22.47
2017-10-20T12:01:21.874Z,24.50
2017-10-20T12:03:47.945Z,25.17
2017-10-20T12:06:14.040Z,24.03
2017-10-20T12:08:40.909Z,26.47
2017-10-20T12:11:07.005Z,28.77
2017-10-20T12:13:33.098Z,23.20
2017-10-20T12:15:59.225Z,25.20
2017-10-20T12:18:25.329Z,25.17
2017-10-20T12:20:52.171Z,24.83
2017-10-20T12:23:18.267Z,25.33
2017-10-20T12:25:44.355Z,23.93
2017-10-20T12:28:10.441Z,24.40
2017-10-20T12:30:36.587Z,28.77
2017-10-20T12:33:02.661Z,24.43
2017-10-20T12:35:28.761Z,26.13
2017-10-20T12:37:54.896Z,24.53
2017-10-20T12:40:20.993Z,23.80
2017-10-20T12:42:47.900Z,24.20
2017-10-20T12:45:14.029Z,23.27
2017-10-20T12:47:40.102Z,24.83
2017-10-20T12:50:06.185Z,23.80
2017-10-20T12:52:32.316Z,25.10
2017-10-20T12:54:58.426Z,26.47
2017-10-20T12:57:24.544Z,26.57
2017-10-20T12:59:50.711Z,24.83
2017-10-20T13:02:17.533Z,24.80
2017-10-20T13:04:43.679Z,26.33
2017-10-20T13:07:09.814Z,28.73
2017-10-20T13:09:35.920Z,40.07
2017-10-20T13:12:02.010Z,27.10
2017-10-20T13:14:28.897Z,26.30
2017-10-20T13:16:55.051Z,29.80
2017-10-20T13:19:21.130Z,26.80
2017-10-20T13:21:47.226Z,26.80
2017-10-20T13:24:13.315Z,27.67
2017-10-20T13:26:40.145Z,25.40
2017-10-20T13:29:06.246Z,27.00
2017-10-20T13:31:32.414Z,25.60
2017-10-20T13:33:58.502Z,26.80
2017-10-20T13:36:24.655Z,27.83
2017-10-20T13:38:50.751Z,23.80
2017-10-20T13:41:16.905Z,26.47
2017-10-20T13:43:43.747Z,25.70
2017-10-20T13:46:10.578Z,23.73
2017-10-20T13:48:36.691Z,24.73
2017-10-20T13:51:02.833Z,25.13
2017-10-20T13:53:28.915Z,24.70
2017-10-20T13:55:55.010Z,26.20
2017-10-20T13:58:21.134Z,26.10
2017-10-20T14:00:53.477Z,26.00
2017-10-20T14:03:19.565Z,23.97
2017-10-20T14:05:45.669Z,24.27
2017-10-20T14:08:12.481Z,27.33
2017-10-20T14:10:38.569Z,26.40
2017-10-20T14:13:05.425Z,27.53
2017-10-20T14:15:31.499Z,27.33
2017-10-20T14:17:57.593Z,25.20
2017-10-20T14:20:24.454Z,26.10
2017-10-20T14:22:50.637Z,25.47
2017-10-20T14:25:16.713Z,27.20
2017-10-20T14:27:43.549Z,25.97
2017-10-20T14:30:09.654Z,26.73
2017-10-20T14:32:35.775Z,27.10
2017-10-20T14:35:01.861Z,26.50
2017-10-20T14:37:27.942Z,28.87
2017-10-20T14:39:54.035Z,28.63
2017-10-20T14:42:20.140Z,27.13
2017-10-20T14:44:46.216Z,28.40
2017-10-20T14:47:12.292Z,25.33
2017-10-20T14:49:38.397Z,27.30
2017-10-20T14:52:04.465Z,28.30
2017-10-20T14:54:30.525Z,28.80
2017-10-20T14:56:56.670Z,27.67
2017-10-20T14:59:22.764Z,27.40
2017-10-20T15:01:49.580Z,29.00
2017-10-20T15:04:15.678Z,30.13
2017-10-20T15:06:41.759Z,29.97
2017-10-20T15:09:07.838Z,30.57
2017-10-20T15:11:33.945Z,30.17
2017-10-20T15:14:00.039Z,31.30
2017-10-20T15:16:26.156Z,29.83
2017-10-20T15:18:52.266Z,29.97
2017-10-20T15:21:19.080Z,30.00
2017-10-20T15:23:45.157Z,32.20
2017-10-20T15:26:12.002Z,30.17
2017-10-20T15:28:38.079Z,29.27
2017-10-20T15:31:04.151Z,31.50
2017-10-20T15:33:30.294Z,29.47
2017-10-20T15:35:56.395Z,28.10
2017-10-20T15:38:22.498Z,28.50
2017-10-20T15:40:49.366Z,31.90
2017-10-20T15:43:16.177Z,30.43
2017-10-20T15:45:42.251Z,29.40
2017-10-20T15:48:09.113Z,28.10
2017-10-20T15:50:35.928Z,28.93
2017-10-20T15:53:02.010Z,29.87
2017-10-20T15:55:28.137Z,30.37
2017-10-20T15:57:54.971Z,31.47
2017-10-20T16:00:21.059Z,32.83
2017-10-20T16:02:47.161Z,34.20
2017-10-20T16:05:13.974Z,33.73
2017-10-20T16:07:40.047Z,34.97
2017-10-20T16:10:06.886Z,34.30
2017-10-20T16:12:32.970Z,31.47
2017-10-20T16:14:59.189Z,31.10
2017-10-20T16:20:23.971Z,30.60
2017-10-20T16:22:50.076Z,31.83
2017-10-20T16:25:16.905Z,30.80
2017-10-20T16:27:43.766Z,31.47
2017-10-20T16:30:10.683Z,31.30
2017-10-20T16:32:36.794Z,31.73
2017-10-20T16:35:02.937Z,31.00
2017-10-20T16:37:29.037Z,31.67
2017-10-20T16:39:55.164Z,32.10
2017-10-20T16:42:21.285Z,30.73
2017-10-20T16:44:47.430Z,34.27
2017-10-20T16:47:13.618Z,33.10
2017-10-20T16:49:39.697Z,31.50
2017-10-20T16:52:05.805Z,34.00
2017-10-20T16:54:31.877Z,31.60
2017-10-20T16:56:57.981Z,32.70
2017-10-20T16:59:24.214Z,32.70
2017-10-20T17:01:50.316Z,32.90
2017-10-20T17:04:16.497Z,32.00
2017-10-20T17:06:42.645Z,65.67
2017-10-20T17:09:08.746Z,33.53
2017-10-20T17:11:35.597Z,31.70
2017-10-20T17:14:01.709Z,33.37
2017-10-20T17:16:27.908Z,67.47
2017-10-20T17:18:54.026Z,59.77
2017-10-20T17:21:20.172Z,33.70
2017-10-20T17:23:46.241Z,32.33
2017-10-20T17:26:12.349Z,144.03
2017-10-20T17:28:38.470Z,116.67
2017-10-20T17:31:05.294Z,29.63
2017-10-20T17:33:31.401Z,113.30
2017-10-20T17:35:57.567Z,48.63
2017-10-20T17:38:23.757Z,115.57
2017-10-20T17:40:49.845Z,29.43
2017-10-20T17:43:16.077Z,29.30
2017-10-20T17:45:42.166Z,29.10
2017-10-20T17:48:08.291Z,29.00
2017-10-20T17:50:35.215Z,26.60
2017-10-20T17:53:01.337Z,43.70
2017-10-20T17:55:27.458Z,31.03
2017-10-20T17:57:53.604Z,29.20
2017-10-20T18:00:19.729Z,32.20
2017-10-20T18:02:45.856Z,32.50
2017-10-20T18:05:11.971Z,29.77
2017-10-20T18:07:38.275Z,31.03
2017-10-20T18:10:04.630Z,31.07
2017-10-20T18:12:31.257Z,32.93
2017-10-20T18:14:57.424Z,38.77
2017-10-20T18:17:25.275Z,31.77
2017-10-20T18:19:51.386Z,33.37
2017-10-20T18:22:17.565Z,34.73
2017-10-20T18:24:43.689Z,30.90
2017-10-20T18:27:09.789Z,38.30
2017-10-20T18:29:36.116Z,45.10
2017-10-20T18:32:03.031Z,34.33
2017-10-20T18:34:29.199Z,36.90
2017-10-20T18:36:55.862Z,32.83
2017-10-20T18:39:22.132Z,34.53
2017-10-20T18:41:48.205Z,32.77
2017-10-20T18:44:14.337Z,36.37
2017-10-20T18:46:40.414Z,34.20
2017-10-20T18:49:07.286Z,36.93
2017-10-20T18:51:33.429Z,39.70
2017-10-20T18:54:00.862Z,39.87
2017-10-20T18:56:27.540Z,37.33
2017-10-20T18:58:54.077Z,38.60
2017-10-20T19:01:20.197Z,39.80
2017-10-20T19:03:47.073Z,39.57
2017-10-20T19:06:13.925Z,43.17
2017-10-20T19:08:40.750Z,45.03
2017-10-20T19:11:06.879Z,40.53
2017-10-20T19:13:33.011Z,47.57
2017-10-20T19:15:59.226Z,42.90
2017-10-20T19:18:26.440Z,41.73
2017-10-20T19:20:52.534Z,35.47
2017-10-20T19:23:18.725Z,37.60
2017-10-20T19:25:44.967Z,36.13
2017-10-20T19:28:11.173Z,36.57
2017-10-20T19:30:37.249Z,34.50
2017-10-20T19:33:04.463Z,36.23
2017-10-20T19:35:30.606Z,39.97
2017-10-20T19:37:56.800Z,31.60
2017-10-20T19:40:22.930Z,38.43
2017-10-20T19:42:49.055Z,34.50
2017-10-20T19:45:15.210Z,36.83
2017-10-20T19:47:41.340Z,36.83
2017-10-20T19:50:07.516Z,36.27
2017-10-20T19:52:33.870Z,37.33
2017-10-20T19:55:00.018Z,37.40
2017-10-20T19:57:26.160Z,42.20
2017-10-20T19:59:52.311Z,47.47
2017-10-20T20:02:18.474Z,43.43
2017-10-20T20:04:44.565Z,39.53
2017-10-20T20:07:10.685Z,38.43
2017-10-20T20:09:36.818Z,34.37
2017-10-20T20:12:03.672Z,36.37
2017-10-20T20:14:30.577Z,42.10
2017-10-20T20:16:56.719Z,38.80
2017-10-20T20:19:22.864Z,35.57
2017-10-20T20:21:48.975Z,40.57
2017-10-20T20:24:15.279Z,33.67
2017-10-20T20:26:42.135Z,44.20
2017-10-20T20:29:08.979Z,42.90
2017-10-20T20:31:35.315Z,35.40
2017-10-20T20:34:03.540Z,33.40
2017-10-20T20:36:30.128Z,32.40
2017-10-20T20:38:57.259Z,32.43
2017-10-20T20:41:23.492Z,34.23
2017-10-20T20:43:49.626Z,35.90
2017-10-20T20:46:16.070Z,34.50
2017-10-20T20:48:42.311Z,32.40
2017-10-20T20:51:08.413Z,31.10
2017-10-20T20:53:34.529Z,29.43
2017-10-20T20:56:00.651Z,27.67
2017-10-20T20:58:26.841Z,27.70
2017-10-20T21:00:53.709Z,27.47
2017-10-20T21:03:20.534Z,27.10
2017-10-20T21:05:46.663Z,26.97
2017-10-20T21:08:12.778Z,27.23
2017-10-20T21:10:38.878Z,23.33
2017-10-20T21:13:05.717Z,26.23
2017-10-20T21:15:31.926Z,25.20
2017-10-20T21:17:58.098Z,33.60
2017-10-20T21:20:24.295Z,28.60
2017-10-20T21:22:50.403Z,31.73
2017-10-20T21:25:16.489Z,25.53
2017-10-20T21:27:42.826Z,27.13
2017-10-20T21:30:09.000Z,30.37
2017-10-20T21:32:35.097Z,29.33
2017-10-20T21:35:01.214Z,30.60
2017-10-20T21:37:27.826Z,27.73
2017-10-20T21:39:53.982Z,28.20
2017-10-20T21:42:20.953Z,25.80
2017-10-20T21:44:47.247Z,27.17
2017-10-20T21:47:13.342Z,28.17
2017-10-20T21:49:39.461Z,27.40
2017-10-20T21:52:05.590Z,25.80
2017-10-20T21:54:31.758Z,24.27
2017-10-20T21:56:57.909Z,24.90
2017-10-20T21:59:24.030Z,26.80
2017-10-20T22:01:50.600Z,27.13
2017-10-20T22:04:16.702Z,27.30
2017-10-20T22:06:42.860Z,27.53
2017-10-20T22:09:08.980Z,25.80
2017-10-20T22:11:35.089Z,23.83
2017-10-20T22:14:01.257Z,24.87
2017-10-20T22:16:27.364Z,26.93
2017-10-20T22:18:54.219Z,26.90
2017-10-20T22:21:21.057Z,24.90
2017-10-20T22:23:47.164Z,27.13
2017-10-20T22:26:13.255Z,24.70
2017-10-20T22:28:40.119Z,24.70
2017-10-20T22:31:06.209Z,25.13
2017-10-20T22:33:32.317Z,23.73
2017-10-20T22:35:58.456Z,25.47
2017-10-20T22:38:24.582Z,23.67
2017-10-20T22:40:50.746Z,24.43
2017-10-20T22:43:16.881Z,24.07
2017-10-20T22:45:42.994Z,25.00
2017-10-20T22:48:09.109Z,25.77
2017-10-20T22:50:35.969Z,25.10
2017-10-20T22:53:02.822Z,28.03
2017-10-20T22:55:29.703Z,25.43
2017-10-20T22:57:55.827Z,26.60
2017-10-20T23:00:21.953Z,23.77
2017-10-20T23:02:48.792Z,26.20
2017-10-20T23:05:14.897Z,23.93
2017-10-20T23:07:40.993Z,23.60
2017-10-20T23:10:07.831Z,23.90
2017-10-20T23:12:34.765Z,27.50
2017-10-20T23:15:00.990Z,22.77
2017-10-20T23:17:27.106Z,23.50
2017-10-20T23:19:53.426Z,23.70
2017-10-20T23:22:19.709Z,24.10
2017-10-20T23:24:45.810Z,24.60
2017-10-20T23:27:11.939Z,24.53
2017-10-20T23:29:38.851Z,25.00
2017-10-20T23:32:04.970Z,24.40
2017-10-20T23:34:31.127Z,22.40
2017-10-20T23:36:57.350Z,25.73
2017-10-20T23:39:23.473Z,20.73
2017-10-20T23:41:49.847Z,24.17
2017-10-20T23:44:15.923Z,22.00
2017-10-20T23:46:42.033Z,23.10
2017-10-20T23:49:08.220Z,22.03
2017-10-20T23:51:34.428Z,21.50
2017-10-20T23:54:00.555Z,21.30
2017-10-20T23:56:26.729Z,22.00
2017-10-20T23:58:53.623Z,22.03
